Terminal Aerodrome Forecast
Issued by NWS

Home | Current Version | Previous Version | Text Only | Print | Product List | Glossary On
Versions: 1 2 3 4 5 6 7 8 9 10 11 12
592
FTUS44 KSJT 262337
TAFBBD
TAF
KBBD 262337Z 2700/2724 VRB06KT P6SM SKC
     FM270900 VRB06KT P6SM FEW020
     FM271100 34006KT P6SM SKC
      AMD NOT SKED=

USA.gov is the U.S. government's official web portal to all federal, state and local government web resources and services.